Terminal Aerodrome Forecast
Issued by NWS

Home | Current Version | Previous Version | Text Only | Print | Product List | Glossary On
Versions: 1 2 3 4 5 6 7 8 9 10 11 12
000
FTUS45 KTFX 042331
TAFBZN
TAF
KBZN 042331Z 0500/0524 32006KT P6SM VCTS SCT060CB BKN090
     FM050300 15005KT P6SM SCT090
     FM051900 20011KT P6SM BKN090 PROB30 0520/0524 -TSRA BKN060CB=

USA.gov is the U.S. government's official web portal to all federal, state and local government web resources and services.